sensor_id;sensor_type;location;lat;lon;timestamp;pressure;altitude;pressure_sealevel;temperature;humidity
80393;BME280;69719;45.544;10.218;2023-09-19T00:00:43;99644.41;;;22.47;78.88
80393;BME280;69719;45.544;10.218;2023-09-19T00:03:09;99644.22;;;22.43;78.88
80393;BME280;69719;45.544;10.218;2023-09-19T00:05:39;99656.38;;;22.31;79.83
80393;BME280;69719;45.544;10.218;2023-09-19T00:08:05;99648.75;;;22.29;79.93
80393;BME280;69719;45.544;10.218;2023-09-19T00:10:32;99647.06;;;22.33;79.47
80393;BME280;69719;45.544;10.218;2023-09-19T00:13:01;99648.94;;;22.19;79.27
80393;BME280;69719;45.544;10.218;2023-09-19T00:15:29;99651.91;;;22.17;79.79
80393;BME280;69719;45.544;10.218;2023-09-19T00:17:55;99654.66;;;22.12;79.59
80393;BME280;69719;45.544;10.218;2023-09-19T00:20:21;99644.03;;;22.26;78.80
80393;BME280;69719;45.544;10.218;2023-09-19T00:22:50;99641.19;;;22.22;78.85
80393;BME280;69719;45.544;10.218;2023-09-19T00:25:20;99629.69;;;22.13;79.08
80393;BME280;69719;45.544;10.218;2023-09-19T00:27:46;99631.28;;;22.14;78.79
80393;BME280;69719;45.544;10.218;2023-09-19T00:30:15;99630.09;;;22.20;78.65
80393;BME280;69719;45.544;10.218;2023-09-19T00:32:50;99627.06;;;22.13;79.23
80393;BME280;69719;45.544;10.218;2023-09-19T00:35:18;99621.88;;;22.08;79.33
80393;BME280;69719;45.544;10.218;2023-09-19T00:37:49;99623.25;;;21.92;80.09
80393;BME280;69719;45.544;10.218;2023-09-19T00:40:15;99636.69;;;21.82;80.73
80393;BME280;69719;45.544;10.218;2023-09-19T00:42:45;99621.34;;;21.79;81.01
80393;BME280;69719;45.544;10.218;2023-09-19T00:45:12;99624.00;;;21.79;80.89
80393;BME280;69719;45.544;10.218;2023-09-19T00:47:40;99620.56;;;21.79;80.67
80393;BME280;69719;45.544;10.218;2023-09-19T00:50:08;99614.97;;;21.80;80.66
80393;BME280;69719;45.544;10.218;2023-09-19T00:52:38;99617.13;;;21.65;81.21
80393;BME280;69719;45.544;10.218;2023-09-19T00:55:08;99623.41;;;21.55;81.70
80393;BME280;69719;45.544;10.218;2023-09-19T00:57:34;99623.66;;;21.53;81.79
80393;BME280;69719;45.544;10.218;2023-09-19T01:00:01;99621.31;;;21.52;81.99
80393;BME280;69719;45.544;10.218;2023-09-19T01:02:31;99626.13;;;21.50;82.10
80393;BME280;69719;45.544;10.218;2023-09-19T01:04:58;99626.16;;;21.64;81.27
80393;BME280;69719;45.544;10.218;2023-09-19T01:07:23;99630.09;;;21.66;80.60
80393;BME280;69719;45.544;10.218;2023-09-19T01:09:49;99627.63;;;21.70;80.45
80393;BME280;69719;45.544;10.218;2023-09-19T01:12:22;99619.59;;;21.75;80.29
80393;BME280;69719;45.544;10.218;2023-09-19T01:14:55;99623.22;;;21.65;80.66
80393;BME280;69719;45.544;10.218;2023-09-19T01:17:33;99630.09;;;21.66;80.96
80393;BME280;69719;45.544;10.218;2023-09-19T01:20:53;99629.88;;;21.76;80.96
80393;BME280;69719;45.544;10.218;2023-09-19T01:23:18;99633.09;;;21.46;81.67
80393;BME280;69719;45.544;10.218;2023-09-19T01:26:20;99639.66;;;21.48;81.94
80393;BME280;69719;45.544;10.218;2023-09-19T01:31:51;99641.69;;;21.38;81.14
80393;BME280;69719;45.544;10.218;2023-09-19T01:34:19;99642.19;;;21.53;80.81
80393;BME280;69719;45.544;10.218;2023-09-19T01:36:45;99637.81;;;21.49;81.15
80393;BME280;69719;45.544;10.218;2023-09-19T01:39:12;99643.78;;;21.55;80.86
80393;BME280;69719;45.544;10.218;2023-09-19T01:44:36;99646.50;;;21.49;80.35
80393;BME280;69719;45.544;10.218;2023-09-19T01:47:21;99649.47;;;21.48;80.39
80393;BME280;69719;45.544;10.218;2023-09-19T01:50:20;99651.78;;;21.36;80.95
80393;BME280;69719;45.544;10.218;2023-09-19T01:53:01;99656.66;;;21.29;81.35
80393;BME280;69719;45.544;10.218;2023-09-19T01:55:30;99654.81;;;21.29;81.82
80393;BME280;69719;45.544;10.218;2023-09-19T02:00:31;99653.53;;;21.27;82.23
80393;BME280;69719;45.544;10.218;2023-09-19T02:02:58;99661.72;;;21.12;82.43
80393;BME280;69719;45.544;10.218;2023-09-19T02:05:25;99656.91;;;21.14;81.83
80393;BME280;69719;45.544;10.218;2023-09-19T02:07:52;99644.09;;;21.02;82.83
80393;BME280;69719;45.544;10.218;2023-09-19T02:10:24;99655.44;;;21.08;82.24
80393;BME280;69719;45.544;10.218;2023-09-19T02:12:50;99657.47;;;21.11;82.41
80393;BME280;69719;45.544;10.218;2023-09-19T02:15:16;99662.69;;;21.16;82.10
80393;BME280;69719;45.544;10.218;2023-09-19T02:17:45;99648.47;;;21.12;82.19
80393;BME280;69719;45.544;10.218;2023-09-19T02:20:12;99656.84;;;21.19;82.36
80393;BME280;69719;45.544;10.218;2023-09-19T02:22:39;99650.34;;;21.11;82.35
80393;BME280;69719;45.544;10.218;2023-09-19T02:25:05;99647.13;;;21.14;82.68
80393;BME280;69719;45.544;10.218;2023-09-19T02:27:30;99652.28;;;21.06;83.26
80393;BME280;69719;45.544;10.218;2023-09-19T02:29:56;99645.63;;;21.08;82.73
80393;BME280;69719;45.544;10.218;2023-09-19T02:32:23;99650.97;;;21.22;82.22
80393;BME280;69719;45.544;10.218;2023-09-19T02:34:48;99654.75;;;21.16;82.70
80393;BME280;69719;45.544;10.218;2023-09-19T02:37:14;99648.06;;;21.05;83.21
80393;BME280;69719;45.544;10.218;2023-09-19T02:39:41;99653.06;;;21.06;83.19
80393;BME280;69719;45.544;10.218;2023-09-19T02:42:07;99648.69;;;20.97;83.39
80393;BME280;69719;45.544;10.218;2023-09-19T02:44:33;99645.75;;;20.98;83.33
80393;BME280;69719;45.544;10.218;2023-09-19T02:46:59;99639.47;;;20.94;83.47
80393;BME280;69719;45.544;10.218;2023-09-19T02:49:24;99653.19;;;20.96;83.35
80393;BME280;69719;45.544;10.218;2023-09-19T02:51:50;99657.28;;;20.89;83.92
80393;BME280;69719;45.544;10.218;2023-09-19T02:54:17;99652.53;;;20.86;83.86
80393;BME280;69719;45.544;10.218;2023-09-19T02:56:43;99654.50;;;20.80;84.07
80393;BME280;69719;45.544;10.218;2023-09-19T02:59:08;99653.75;;;20.74;84.41
80393;BME280;69719;45.544;10.218;2023-09-19T03:01:35;99650.41;;;20.69;84.28
80393;BME280;69719;45.544;10.218;2023-09-19T03:04:02;99658.00;;;20.75;83.99
80393;BME280;69719;45.544;10.218;2023-09-19T03:06:28;99658.78;;;20.76;83.64
80393;BME280;69719;45.544;10.218;2023-09-19T03:08:56;99656.28;;;20.85;83.17
80393;BME280;69719;45.544;10.218;2023-09-19T03:11:22;99657.28;;;20.89;82.99
80393;BME280;69719;45.544;10.218;2023-09-19T03:13:52;99658.06;;;20.70;83.37
80393;BME280;69719;45.544;10.218;2023-09-19T03:16:19;99655.41;;;20.70;83.25
80393;BME280;69719;45.544;10.218;2023-09-19T03:18:47;99651.25;;;20.64;83.68
80393;BME280;69719;45.544;10.218;2023-09-19T03:21:15;99649.63;;;20.68;83.43
80393;BME280;69719;45.544;10.218;2023-09-19T03:23:40;99647.34;;;20.62;83.32
80393;BME280;69719;45.544;10.218;2023-09-19T03:26:06;99641.84;;;20.58;84.12
80393;BME280;69719;45.544;10.218;2023-09-19T03:28:33;99638.25;;;20.68;83.33
80393;BME280;69719;45.544;10.218;2023-09-19T03:31:01;99645.47;;;20.62;83.50
80393;BME280;69719;45.544;10.218;2023-09-19T03:33:27;99646.13;;;20.54;84.33
80393;BME280;69719;45.544;10.218;2023-09-19T03:35:53;99639.41;;;20.43;84.64
80393;BME280;69719;45.544;10.218;2023-09-19T03:38:19;99641.84;;;20.58;84.13
80393;BME280;69719;45.544;10.218;2023-09-19T03:40:45;99636.75;;;20.62;83.73
80393;BME280;69719;45.544;10.218;2023-09-19T03:43:10;99637.06;;;20.60;83.82
80393;BME280;69719;45.544;10.218;2023-09-19T03:45:36;99636.63;;;20.72;83.07
80393;BME280;69719;45.544;10.218;2023-09-19T03:48:11;99636.00;;;20.61;83.21
80393;BME280;69719;45.544;10.218;2023-09-19T03:50:37;99634.19;;;20.57;83.60
80393;BME280;69719;45.544;10.218;2023-09-19T03:53:02;99630.69;;;20.61;83.53
80393;BME280;69719;45.544;10.218;2023-09-19T03:55:29;99625.78;;;20.55;83.59
80393;BME280;69719;45.544;10.218;2023-09-19T03:57:57;99624.97;;;20.36;84.46
80393;BME280;69719;45.544;10.218;2023-09-19T04:00:23;99617.41;;;20.48;83.65
80393;BME280;69719;45.544;10.218;2023-09-19T04:02:52;99621.09;;;20.47;83.61
80393;BME280;69719;45.544;10.218;2023-09-19T04:05:18;99626.84;;;20.54;83.54
80393;BME280;69719;45.544;10.218;2023-09-19T04:07:44;99621.69;;;20.62;82.71
80393;BME280;69719;45.544;10.218;2023-09-19T04:10:10;99627.69;;;20.49;83.84
80393;BME280;69719;45.544;10.218;2023-09-19T04:12:40;99623.88;;;20.37;84.65
80393;BME280;69719;45.544;10.218;2023-09-19T04:15:09;99639.03;;;20.31;84.66
80393;BME280;69719;45.544;10.218;2023-09-19T04:17:36;99627.97;;;20.29;85.07
80393;BME280;69719;45.544;10.218;2023-09-19T04:20:02;99617.75;;;20.23;85.05
80393;BME280;69719;45.544;10.218;2023-09-19T04:22:32;99623.34;;;20.40;84.48
80393;BME280;69719;45.544;10.218;2023-09-19T04:24:57;99622.41;;;20.49;83.50
80393;BME280;69719;45.544;10.218;2023-09-19T04:27:23;99627.69;;;20.49;83.40
80393;BME280;69719;45.544;10.218;2023-09-19T04:29:48;99625.53;;;20.51;83.32
80393;BME280;69719;45.544;10.218;2023-09-19T04:32:16;99625.47;;;20.38;83.61
80393;BME280;69719;45.544;10.218;2023-09-19T04:34:42;99627.25;;;20.42;83.28
80393;BME280;69719;45.544;10.218;2023-09-19T04:37:08;99629.47;;;20.35;83.62
80393;BME280;69719;45.544;10.218;2023-09-19T04:39:33;99636.25;;;20.41;82.98
80393;BME280;69719;45.544;10.218;2023-09-19T04:41:59;99636.75;;;20.43;83.16
80393;BME280;69719;45.544;10.218;2023-09-19T04:44:24;99637.31;;;20.40;83.04
80393;BME280;69719;45.544;10.218;2023-09-19T04:46:50;99648.97;;;20.39;82.91
80393;BME280;69719;45.544;10.218;2023-09-19T04:49:16;99656.25;;;20.47;82.66
80393;BME280;69719;45.544;10.218;2023-09-19T04:51:41;99659.34;;;20.54;82.36
80393;BME280;69719;45.544;10.218;2023-09-19T04:54:07;99670.56;;;20.46;82.75
80393;BME280;69719;45.544;10.218;2023-09-19T04:56:33;99665.78;;;20.48;82.92
80393;BME280;69719;45.544;10.218;2023-09-19T04:58:59;99670.63;;;20.41;83.13
80393;BME280;69719;45.544;10.218;2023-09-19T05:01:25;99681.13;;;20.46;82.63
80393;BME280;69719;45.544;10.218;2023-09-19T05:03:51;99680.09;;;20.42;83.22
80393;BME280;69719;45.544;10.218;2023-09-19T05:06:22;99691.03;;;20.36;83.56
80393;BME280;69719;45.544;10.218;2023-09-19T05:08:49;99691.25;;;20.39;83.62
80393;BME280;69719;45.544;10.218;2023-09-19T05:11:21;99686.03;;;20.34;83.48
80393;BME280;69719;45.544;10.218;2023-09-19T05:13:48;99691.31;;;20.34;83.23
80393;BME280;69719;45.544;10.218;2023-09-19T05:16:15;99695.97;;;20.42;82.89
80393;BME280;69719;45.544;10.218;2023-09-19T05:18:41;99696.84;;;20.56;82.02
80393;BME280;69719;45.544;10.218;2023-09-19T05:21:07;99699.06;;;20.68;81.56
80393;BME280;69719;45.544;10.218;2023-09-19T05:23:33;99706.16;;;20.72;81.35
80393;BME280;69719;45.544;10.218;2023-09-19T05:25:58;99710.03;;;20.61;81.91
80393;BME280;69719;45.544;10.218;2023-09-19T05:28:26;99704.94;;;20.65;81.74
80393;BME280;69719;45.544;10.218;2023-09-19T05:30:52;99712.22;;;20.54;82.57
80393;BME280;69719;45.544;10.218;2023-09-19T05:33:19;99702.69;;;20.53;82.51
80393;BME280;69719;45.544;10.218;2023-09-19T05:35:45;99709.31;;;20.51;82.41
80393;BME280;69719;45.544;10.218;2023-09-19T05:38:13;99704.41;;;20.44;82.86
80393;BME280;69719;45.544;10.218;2023-09-19T05:40:39;99703.03;;;20.47;82.70
80393;BME280;69719;45.544;10.218;2023-09-19T05:43:08;99713.03;;;20.31;83.40
80393;BME280;69719;45.544;10.218;2023-09-19T05:45:34;99719.25;;;20.40;82.85
80393;BME280;69719;45.544;10.218;2023-09-19T05:48:13;99716.00;;;20.48;82.78
80393;BME280;69719;45.544;10.218;2023-09-19T05:50:40;99718.97;;;20.42;82.89
80393;BME280;69719;45.544;10.218;2023-09-19T05:53:05;99727.25;;;20.35;83.47
80393;BME280;69719;45.544;10.218;2023-09-19T05:55:34;99730.91;;;20.39;82.75
80393;BME280;69719;45.544;10.218;2023-09-19T05:58:00;99737.34;;;20.52;82.56
80393;BME280;69719;45.544;10.218;2023-09-19T06:00:28;99742.84;;;20.55;82.31
80393;BME280;69719;45.544;10.218;2023-09-19T06:02:56;99733.72;;;20.66;81.66
80393;BME280;69719;45.544;10.218;2023-09-19T06:05:23;99735.31;;;20.67;81.19
80393;BME280;69719;45.544;10.218;2023-09-19T06:07:50;99737.41;;;20.89;80.50
80393;BME280;69719;45.544;10.218;2023-09-19T06:10:17;99735.53;;;20.90;80.40
80393;BME280;69719;45.544;10.218;2023-09-19T06:12:43;99742.25;;;20.82;81.12
80393;BME280;69719;45.544;10.218;2023-09-19T06:15:10;99743.41;;;20.95;80.39
80393;BME280;69719;45.544;10.218;2023-09-19T06:17:50;99746.25;;;20.98;80.56
80393;BME280;69719;45.544;10.218;2023-09-19T06:20:16;99743.75;;;20.88;80.71
80393;BME280;69719;45.544;10.218;2023-09-19T06:22:42;99741.22;;;21.02;80.30
80393;BME280;69719;45.544;10.218;2023-09-19T06:25:13;99744.72;;;21.16;79.96
80393;BME280;69719;45.544;10.218;2023-09-19T06:27:44;99739.22;;;21.31;79.51
80393;BME280;69719;45.544;10.218;2023-09-19T06:30:11;99736.81;;;21.48;78.81
80393;BME280;69719;45.544;10.218;2023-09-19T06:32:40;99740.66;;;21.56;78.93
80393;BME280;69719;45.544;10.218;2023-09-19T06:35:12;99739.59;;;21.57;78.30
80393;BME280;69719;45.544;10.218;2023-09-19T06:37:39;99745.75;;;21.52;78.58
80393;BME280;69719;45.544;10.218;2023-09-19T06:40:13;99735.84;;;21.44;78.36
80393;BME280;69719;45.544;10.218;2023-09-19T06:42:50;99741.63;;;21.46;78.32
80393;BME280;69719;45.544;10.218;2023-09-19T06:45:16;99741.31;;;21.47;78.38
80393;BME280;69719;45.544;10.218;2023-09-19T06:47:49;99749.91;;;21.58;78.37
80393;BME280;69719;45.544;10.218;2023-09-19T06:50:15;99745.09;;;21.60;77.90
80393;BME280;69719;45.544;10.218;2023-09-19T06:52:44;99743.84;;;21.58;77.98
80393;BME280;69719;45.544;10.218;2023-09-19T06:55:10;99744.44;;;21.68;77.56
80393;BME280;69719;45.544;10.218;2023-09-19T06:57:39;99742.28;;;21.70;77.76
80393;BME280;69719;45.544;10.218;2023-09-19T07:00:06;99751.59;;;22.13;76.05
80393;BME280;69719;45.544;10.218;2023-09-19T07:02:41;99755.50;;;23.11;72.68
80393;BME280;69719;45.544;10.218;2023-09-19T07:05:07;99750.47;;;23.45;71.31
80393;BME280;69719;45.544;10.218;2023-09-19T07:07:33;99747.41;;;23.83;70.20
80393;BME280;69719;45.544;10.218;2023-09-19T07:10:01;99753.69;;;23.87;69.11
80393;BME280;69719;45.544;10.218;2023-09-19T07:12:27;99760.13;;;23.63;70.25
80393;BME280;69719;45.544;10.218;2023-09-19T07:14:52;99756.59;;;23.76;69.81
80393;BME280;69719;45.544;10.218;2023-09-19T07:17:18;99764.94;;;24.06;68.70
80393;BME280;69719;45.544;10.218;2023-09-19T07:19:44;99763.94;;;24.02;68.72
80393;BME280;69719;45.544;10.218;2023-09-19T07:22:10;99770.75;;;23.86;68.93
80393;BME280;69719;45.544;10.218;2023-09-19T07:24:36;99773.00;;;24.23;67.50
80393;BME280;69719;45.544;10.218;2023-09-19T07:27:02;99774.56;;;24.02;69.17
80393;BME280;69719;45.544;10.218;2023-09-19T07:29:28;99772.16;;;24.14;68.55
80393;BME280;69719;45.544;10.218;2023-09-19T07:31:53;99769.47;;;24.53;67.15
80393;BME280;69719;45.544;10.218;2023-09-19T07:34:19;99771.09;;;24.71;66.19
80393;BME280;69719;45.544;10.218;2023-09-19T07:36:47;99768.72;;;24.52;67.19
80393;BME280;69719;45.544;10.218;2023-09-19T07:39:13;99776.44;;;24.71;66.51
80393;BME280;69719;45.544;10.218;2023-09-19T07:41:38;99770.53;;;24.74;66.19
80393;BME280;69719;45.544;10.218;2023-09-19T07:44:04;99768.81;;;24.39;66.88
80393;BME280;69719;45.544;10.218;2023-09-19T07:46:30;99785.72;;;24.43;67.05
80393;BME280;69719;45.544;10.218;2023-09-19T07:48:57;99780.50;;;24.29;67.74
80393;BME280;69719;45.544;10.218;2023-09-19T07:51:22;99792.97;;;24.60;67.08
80393;BME280;69719;45.544;10.218;2023-09-19T07:53:48;99793.25;;;24.80;66.09
80393;BME280;69719;45.544;10.218;2023-09-19T07:56:13;99789.25;;;24.69;65.07
80393;BME280;69719;45.544;10.218;2023-09-19T07:58:40;99793.28;;;24.49;66.67
80393;BME280;69719;45.544;10.218;2023-09-19T08:01:10;99798.88;;;24.87;65.55
80393;BME280;69719;45.544;10.218;2023-09-19T08:03:36;99797.97;;;25.00;64.57
80393;BME280;69719;45.544;10.218;2023-09-19T08:06:09;99799.06;;;24.99;64.39
80393;BME280;69719;45.544;10.218;2023-09-19T08:08:36;99801.44;;;25.26;63.80
80393;BME280;69719;45.544;10.218;2023-09-19T08:11:05;99795.97;;;25.40;62.88
80393;BME280;69719;45.544;10.218;2023-09-19T08:13:39;99802.06;;;25.58;62.42
80393;BME280;69719;45.544;10.218;2023-09-19T08:16:15;99798.66;;;25.57;62.28
80393;BME280;69719;45.544;10.218;2023-09-19T08:18:41;99801.31;;;25.49;62.50
80393;BME280;69719;45.544;10.218;2023-09-19T08:21:07;99807.25;;;25.46;61.74
80393;BME280;69719;45.544;10.218;2023-09-19T08:23:38;99807.22;;;25.03;63.34
80393;BME280;69719;45.544;10.218;2023-09-19T08:26:04;99807.09;;;25.34;62.96
80393;BME280;69719;45.544;10.218;2023-09-19T08:28:36;99810.69;;;25.29;63.00
80393;BME280;69719;45.544;10.218;2023-09-19T08:31:03;99810.25;;;25.44;62.75
80393;BME280;69719;45.544;10.218;2023-09-19T08:33:32;99805.84;;;25.57;62.20
80393;BME280;69719;45.544;10.218;2023-09-19T08:35:58;99803.66;;;25.59;62.09
80393;BME280;69719;45.544;10.218;2023-09-19T08:38:23;99805.06;;;25.65;61.51
80393;BME280;69719;45.544;10.218;2023-09-19T08:40:49;99802.25;;;25.44;61.97
80393;BME280;69719;45.544;10.218;2023-09-19T08:43:14;99801.16;;;25.45;62.72
80393;BME280;69719;45.544;10.218;2023-09-19T08:45:40;99801.13;;;25.71;61.75
80393;BME280;69719;45.544;10.218;2023-09-19T08:50:33;99810.41;;;25.48;62.03
80393;BME280;69719;45.544;10.218;2023-09-19T08:53:10;99806.75;;;25.86;61.13
80393;BME280;69719;45.544;10.218;2023-09-19T08:55:40;99814.09;;;26.07;60.78
80393;BME280;69719;45.544;10.218;2023-09-19T08:58:10;99815.06;;;25.85;61.35
80393;BME280;69719;45.544;10.218;2023-09-19T09:00:36;99807.97;;;26.15;60.95
80393;BME280;69719;45.544;10.218;2023-09-19T09:03:03;99809.09;;;25.88;61.17
80393;BME280;69719;45.544;10.218;2023-09-19T09:05:41;99807.50;;;26.13;59.94
80393;BME280;69719;45.544;10.218;2023-09-19T09:08:14;99813.25;;;26.32;59.71
80393;BME280;69719;45.544;10.218;2023-09-19T09:10:44;99812.41;;;26.40;59.12
80393;BME280;69719;45.544;10.218;2023-09-19T09:13:10;99808.97;;;26.39;59.10
80393;BME280;69719;45.544;10.218;2023-09-19T09:15:40;99810.91;;;26.30;59.53
80393;BME280;69719;45.544;10.218;2023-09-19T09:18:07;99812.50;;;26.52;59.15
80393;BME280;69719;45.544;10.218;2023-09-19T09:20:35;99813.34;;;25.89;59.94
80393;BME280;69719;45.544;10.218;2023-09-19T09:23:01;99811.63;;;26.39;59.37
80393;BME280;69719;45.544;10.218;2023-09-19T09:28:20;99810.22;;;26.42;58.46
80393;BME280;69719;45.544;10.218;2023-09-19T09:30:49;99814.34;;;26.68;58.16
80393;BME280;69719;45.544;10.218;2023-09-19T09:33:15;99811.38;;;26.61;58.38
80393;BME280;69719;45.544;10.218;2023-09-19T09:35:52;99814.22;;;26.56;58.22
80393;BME280;69719;45.544;10.218;2023-09-19T09:39:04;99809.28;;;26.67;58.81
80393;BME280;69719;45.544;10.218;2023-09-19T09:41:11;99810.41;;;26.74;57.82
80393;BME280;69719;45.544;10.218;2023-09-19T09:43:41;99791.66;;;26.45;57.88
80393;BME280;69719;45.544;10.218;2023-09-19T09:46:12;99807.75;;;26.66;57.38
80393;BME280;69719;45.544;10.218;2023-09-19T09:48:56;99800.41;;;27.13;56.86
80393;BME280;69719;45.544;10.218;2023-09-19T09:51:51;99808.69;;;27.20;55.89
80393;BME280;69719;45.544;10.218;2023-09-19T09:54:28;99801.59;;;27.24;55.59
80393;BME280;69719;45.544;10.218;2023-09-19T09:57:08;99797.66;;;26.71;56.89
80393;BME280;69719;45.544;10.218;2023-09-19T09:59:58;99797.34;;;26.82;56.93
80393;BME280;69719;45.544;10.218;2023-09-19T10:02:41;99798.25;;;27.06;56.73
80393;BME280;69719;45.544;10.218;2023-09-19T10:05:14;99800.63;;;27.28;56.21
80393;BME280;69719;45.544;10.218;2023-09-19T10:07:50;99799.25;;;27.43;54.74
80393;BME280;69719;45.544;10.218;2023-09-19T10:10:34;99797.84;;;27.16;54.71
80393;BME280;69719;45.544;10.218;2023-09-19T10:13:10;99799.78;;;27.16;55.48
80393;BME280;69719;45.544;10.218;2023-09-19T10:15:44;99795.91;;;27.46;55.63
80393;BME280;69719;45.544;10.218;2023-09-19T10:18:20;99793.47;;;27.41;56.13
80393;BME280;69719;45.544;10.218;2023-09-19T10:20:46;99788.56;;;27.43;55.72
80393;BME280;69719;45.544;10.218;2023-09-19T10:23:14;99797.97;;;27.61;55.76
80393;BME280;69719;45.544;10.218;2023-09-19T10:25:47;99802.84;;;27.26;56.53
80393;BME280;69719;45.544;10.218;2023-09-19T10:28:16;99809.03;;;27.39;56.34
80393;BME280;69719;45.544;10.218;2023-09-19T10:30:46;99794.78;;;27.06;56.47
80393;BME280;69719;45.544;10.218;2023-09-19T10:33:17;99805.75;;;26.54;57.79
80393;BME280;69719;45.544;10.218;2023-09-19T10:35:45;99799.06;;;26.77;57.24
80393;BME280;69719;45.544;10.218;2023-09-19T10:38:12;99799.56;;;27.00;57.34
80393;BME280;69719;45.544;10.218;2023-09-19T10:40:39;99796.38;;;27.07;56.84
80393;BME280;69719;45.544;10.218;2023-09-19T10:43:16;99797.81;;;27.04;56.72
80393;BME280;69719;45.544;10.218;2023-09-19T10:45:49;99792.16;;;26.77;57.20
80393;BME280;69719;45.544;10.218;2023-09-19T10:48:18;99792.56;;;26.87;56.49
80393;BME280;69719;45.544;10.218;2023-09-19T10:53:25;99793.19;;;27.13;56.06
80393;BME280;69719;45.544;10.218;2023-09-19T10:55:56;99794.06;;;26.97;56.71
80393;BME280;69719;45.544;10.218;2023-09-19T10:58:29;99792.00;;;27.02;57.43
80393;BME280;69719;45.544;10.218;2023-09-19T11:00:57;99787.38;;;27.11;57.96
80393;BME280;69719;45.544;10.218;2023-09-19T11:03:33;99787.25;;;27.28;57.40
80393;BME280;69719;45.544;10.218;2023-09-19T11:06:18;99777.22;;;27.25;56.47
80393;BME280;69719;45.544;10.218;2023-09-19T11:09:02;99770.63;;;27.23;55.03
80393;BME280;69719;45.544;10.218;2023-09-19T11:30:39;99760.78;;;27.56;53.86
80393;BME280;69719;45.544;10.218;2023-09-19T11:33:24;99758.03;;;27.65;54.97
80393;BME280;69719;45.544;10.218;2023-09-19T11:41:39;99759.09;;;27.52;53.63
80393;BME280;69719;45.544;10.218;2023-09-19T11:46:55;99756.16;;;27.44;52.98
80393;BME280;69719;45.544;10.218;2023-09-19T11:49:27;99747.88;;;27.37;52.24
80393;BME280;69719;45.544;10.218;2023-09-19T11:51:58;99748.16;;;27.57;52.99
80393;BME280;69719;45.544;10.218;2023-09-19T11:54:27;99754.53;;;27.52;53.69
80393;BME280;69719;45.544;10.218;2023-09-19T11:56:58;99747.63;;;27.51;53.69
80393;BME280;69719;45.544;10.218;2023-09-19T11:59:26;99754.09;;;27.09;53.30
80393;BME280;69719;45.544;10.218;2023-09-19T12:01:57;99746.84;;;27.30;53.27
80393;BME280;69719;45.544;10.218;2023-09-19T12:04:42;99749.97;;;27.32;53.46
80393;BME280;69719;45.544;10.218;2023-09-19T12:07:16;99743.13;;;27.43;53.41
80393;BME280;69719;45.544;10.218;2023-09-19T12:09:47;99738.97;;;27.66;52.13
80393;BME280;69719;45.544;10.218;2023-09-19T12:12:20;99733.19;;;27.76;52.91
80393;BME280;69719;45.544;10.218;2023-09-19T12:14:50;99727.28;;;27.83;51.36
80393;BME280;69719;45.544;10.218;2023-09-19T12:17:19;99730.22;;;27.90;51.36
80393;BME280;69719;45.544;10.218;2023-09-19T12:19:56;99722.97;;;27.90;51.12
80393;BME280;69719;45.544;10.218;2023-09-19T12:22:22;99725.19;;;27.88;51.11
80393;BME280;69719;45.544;10.218;2023-09-19T12:24:48;99727.88;;;27.88;50.53
80393;BME280;69719;45.544;10.218;2023-09-19T12:27:16;99719.06;;;27.88;50.38
80393;BME280;69719;45.544;10.218;2023-09-19T12:29:49;99708.03;;;27.77;51.60
80393;BME280;69719;45.544;10.218;2023-09-19T12:32:15;99712.34;;;27.70;51.31
80393;BME280;69719;45.544;10.218;2023-09-19T12:34:52;99714.03;;;27.74;50.67
80393;BME280;69719;45.544;10.218;2023-09-19T12:37:19;99705.69;;;27.76;51.24
80393;BME280;69719;45.544;10.218;2023-09-19T12:39:49;99717.56;;;27.54;50.98
80393;BME280;69719;45.544;10.218;2023-09-19T12:42:21;99718.91;;;27.60;51.08
80393;BME280;69719;45.544;10.218;2023-09-19T12:44:51;99709.81;;;27.85;50.43
80393;BME280;69719;45.544;10.218;2023-09-19T12:47:27;99703.91;;;27.92;50.70
80393;BME280;69719;45.544;10.218;2023-09-19T12:50:11;99705.59;;;27.96;49.51
80393;BME280;69719;45.544;10.218;2023-09-19T12:52:48;99699.16;;;28.09;49.43
80393;BME280;69719;45.544;10.218;2023-09-19T12:55:25;99697.16;;;28.06;48.69
80393;BME280;69719;45.544;10.218;2023-09-19T13:00:42;99703.16;;;28.15;48.54
80393;BME280;69719;45.544;10.218;2023-09-19T13:08:18;99695.34;;;28.10;48.46
80393;BME280;69719;45.544;10.218;2023-09-19T13:13:30;99690.25;;;28.17;48.19
80393;BME280;69719;45.544;10.218;2023-09-19T13:15:55;99696.59;;;28.01;48.24
80393;BME280;69719;45.544;10.218;2023-09-19T13:18:23;99697.59;;;28.08;49.38
80393;BME280;69719;45.544;10.218;2023-09-19T13:21:07;99688.75;;;27.96;49.40
80393;BME280;69719;45.544;10.218;2023-09-19T13:23:38;99690.88;;;27.90;50.03
80393;BME280;69719;45.544;10.218;2023-09-19T13:26:03;99688.56;;;28.01;49.84
80393;BME280;69719;45.544;10.218;2023-09-19T13:28:33;99695.44;;;27.90;49.54
80393;BME280;69719;45.544;10.218;2023-09-19T13:30:59;99685.34;;;28.07;50.29
80393;BME280;69719;45.544;10.218;2023-09-19T13:33:24;99689.00;;;28.15;48.91
80393;BME280;69719;45.544;10.218;2023-09-19T13:35:51;99693.03;;;28.09;49.05
80393;BME280;69719;45.544;10.218;2023-09-19T13:38:18;99682.63;;;27.95;48.63
80393;BME280;69719;45.544;10.218;2023-09-19T13:40:47;99683.66;;;28.03;48.26
80393;BME280;69719;45.544;10.218;2023-09-19T13:43:13;99689.13;;;28.06;48.57
80393;BME280;69719;45.544;10.218;2023-09-19T13:45:39;99687.69;;;28.09;48.44
80393;BME280;69719;45.544;10.218;2023-09-19T13:48:07;99690.19;;;27.93;48.15
80393;BME280;69719;45.544;10.218;2023-09-19T13:50:34;99681.78;;;28.15;48.69
80393;BME280;69719;45.544;10.218;2023-09-19T13:53:01;99686.69;;;28.01;47.94
80393;BME280;69719;45.544;10.218;2023-09-19T13:55:28;99682.56;;;28.16;48.59